KSPG/SPG METAR and TAF weather

Enter ICAO airport designator
Station Type Date Time Source
KSPG METAR 2019/02/21 11:53 UTC NOAA

KSPG 211153Z 13004KT 10SM CLR 21/19 A3009 RMK AO2 SLP187 T02060194 10222 20206 53012


Station Type Date Time Source
KSPG Decoded METAR 2019/02/21 11:53 UTC NOAA

ST PETERSBURG WHITTED AIRPORT , FL, United States (KSPG) 27-46N 082-38W 2M
Feb 21, 2019 - 06:53 AM EST / 2019.02.21 1153 UTC
Wind: from the SE (130 degrees) at 5 MPH (4 KT):0
Visibility: 10 mile(s):0
Sky conditions: clear
Temperature: 69.1 F (20.6 C)
Dew Point: 66.9 F (19.4 C)
Relative Humidity: 92%
Pressure (altimeter): 30.09 in. Hg (1018 hPa)
Pressure tendency: 0.04 inches (1.2 hPa) higher than three hours ago
ob: KSPG 211153Z 13004KT 10SM CLR 21/19 A3009 RMK AO2 SLP187 T02060194 10222 20206 53012
cycle: 12

Station Type Date Time Source
KSPG TAF UTC NOAA

Error!


Example: see airport list